NCAR-RAP Real-Time Weather Data

Output produced by METARs form (12 May 2021  12:10 UTC)
found at http://weather.rap.ucar.edu/surface/
 
KTOI 121202Z AUTO 26004KT 1 3/4SM +RA BR BKN055 BKN080 OVC095 19/17 A3009 RMK AO2 LTG DSNT E-SW P0004 T01940172
KTOI 121153Z AUTO 00000KT 5SM RA BR FEW028 BKN080 OVC120 19/17 A3008 RMK AO2 LTG DSNT S AND SW RAB26 SLP181 P0008 60013 70018 T01940172 10211 20194 53014
KTOI 121053Z AUTO 00000KT 7SM FEW005 BKN042 OVC110 20/18 A3006 RMK AO2 LTG DSNT SW AND W RAE43 SLP174 P0000 T02000178
KTOI 121038Z AUTO 00000KT 7SM -RA FEW005 BKN046 OVC110 20/18 A3004 RMK AO2 LTG DSNT W P0000 T02000178
KTOI 120953Z AUTO 00000KT 9SM -RA FEW090 BKN120 20/18 A3004 RMK AO2 RAB09 SLP169 P0001 T02000178
KTOI 120912Z AUTO 00000KT 10SM -RA SCT005 OVC110 21/18 A3003 RMK AO2 RAB09 P0000 T02060178
KTOI 120901Z AUTO 00000KT 10SM BKN005 OVC050 21/18 A3003 RMK AO2 T02060183
KTOI 120853Z AUTO 00000KT 10SM BKN004 OVC055 21/18 A3004 RMK AO2 RAE0754B10E53 SLP166 P0001 60004 T02060183 55002
KTOI 120851Z AUTO 00000KT 10SM -RA SCT004 OVC055 21/18 A3003 RMK AO2 RAE0754B10 P0001
KTOI 120753Z AUTO 00000KT 10SM -RA SCT120 20/18 A3003 RMK AO2 RAB21 SLP165 P0001 T02000178
KTOI 120653Z AUTO 00000KT 10SM FEW002 SCT011 BKN070 20/18 A3004 RMK AO2 RAB02E50 SLP168 P0002 T02000178
KTOI 120636Z AUTO 00000KT 8SM -RA SCT009 BKN015 OVC065 21/18 A3005 RMK AO2 RAB02 P0002 T02060178
KTOI 120604Z AUTO 26004KT 8SM -RA BKN010 OVC075 20/18 A3006 RMK AO2 RAB02 P0000 T02000178
KTOI 120553Z AUTO 24004KT 9SM BKN009 OVC070 20/18 A3006 RMK AO2 SLP175 T02000178 10228 20194 402940194 57004
KTOI 120545Z AUTO 19003KT 7SM SCT009 OVC075 20/18 A3005 RMK AO2 T02000178
KTOI 120453Z AUTO 00000KT 6SM BR BKN080 19/18 A3006 RMK AO2 SLP176 T01940178
KTOI 120353Z AUTO 00000KT 10SM CLR 21/18 A3007 RMK AO2 SLP179 T02060183
KTOI 120253Z AUTO 18003KT 4SM BR CLR 20/18 A3008 RMK AO2 SLP179 T02000178 51017
KTOI 120244Z AUTO 15004KT 1 3/4SM BR FEW011 19/18 A3008 RMK AO2 VIS 3/4V5 T01940178
KTOI 120237Z AUTO 00000KT 8SM SCT012 21/18 A3008 RMK AO2 T02060183
KTOI 120215Z AUTO 00000KT 10SM BKN012 21/18 A3008 RMK AO2 T02060183
KTOI 120153Z AUTO 00000KT 7SM CLR 21/18 A3006 RMK AO2 SLP176 T02060183
KTOI 120053Z AUTO 00000KT 10SM CLR 22/19 A3004 RMK AO2 SLP169 T02170189
KTOI 112353Z AUTO 18004KT 10SM CLR 23/20 A3002 RMK AO2 RAE2256 SLP163 P0000 60005 T02280200 10289 20228 55008
KTOI 112315Z AUTO 00000KT 10SM FEW006 SCT014 23/20 A3003 RMK AO2 RAE2256 P0000 T02330200
KTOI 112258Z AUTO 30004KT 10SM SCT008 BKN014 BKN060 24/21 A3003 RMK AO2 LTG DSNT N AND NE RAE56 P0000 T02390206
KTOI 112253Z AUTO 26003KT 10SM -RA SCT008 SCT065 BKN120 24/21 A3002 RMK AO2 LTG DSNT N AND NE RAE38B42 SLP162 P0000 T02390206
KTOI 112238Z AUTO 23003KT 10SM FEW009 FEW070 BKN110 23/20 A3001 RMK AO2 LTG DSNT E RAE38 P0000 T02330200
KTOI 112153Z AUTO 23007KT 10SM -RA BKN110 24/21 A3002 RMK AO2 SLP161 P0005 T02390206
KTOI 112131Z AUTO 25006KT 6SM -RA BKN110 24/21 A3003 RMK AO2 LTG DSNT SE-SW P0004 T02440211